sensor_id;sensor_type;location;lat;lon;timestamp;P1;durP1;ratioP1;P2;durP2;ratioP2
35969;SDS011;22448;51.298;6.430;2023-04-24T00:01:58;6.53;;;2.25;;
35969;SDS011;22448;51.298;6.430;2023-04-24T00:04:25;4.43;;;2.20;;
35969;SDS011;22448;51.298;6.430;2023-04-24T00:06:52;7.30;;;2.58;;
35969;SDS011;22448;51.298;6.430;2023-04-24T00:09:23;7.28;;;2.70;;
35969;SDS011;22448;51.298;6.430;2023-04-24T00:11:51;6.63;;;2.90;;
35969;SDS011;22448;51.298;6.430;2023-04-24T00:14:18;8.18;;;3.55;;
35969;SDS011;22448;51.298;6.430;2023-04-24T00:16:45;6.22;;;3.60;;
35969;SDS011;22448;51.298;6.430;2023-04-24T00:19:12;12.52;;;3.83;;
35969;SDS011;22448;51.298;6.430;2023-04-24T00:21:39;5.88;;;3.40;;
35969;SDS011;22448;51.298;6.430;2023-04-24T00:24:07;6.53;;;4.07;;
35969;SDS011;22448;51.298;6.430;2023-04-24T00:26:37;9.60;;;4.80;;
35969;SDS011;22448;51.298;6.430;2023-04-24T00:29:04;5.28;;;4.22;;
35969;SDS011;22448;51.298;6.430;2023-04-24T00:31:31;10.43;;;4.43;;
35969;SDS011;22448;51.298;6.430;2023-04-24T00:34:01;10.10;;;4.90;;
35969;SDS011;22448;51.298;6.430;2023-04-24T00:36:29;8.57;;;5.40;;
35969;SDS011;22448;51.298;6.430;2023-04-24T00:38:57;9.68;;;4.97;;
35969;SDS011;22448;51.298;6.430;2023-04-24T00:41:24;13.50;;;5.60;;
35969;SDS011;22448;51.298;6.430;2023-04-24T00:43:52;12.95;;;5.88;;
35969;SDS011;22448;51.298;6.430;2023-04-24T00:46:19;12.20;;;5.50;;
35969;SDS011;22448;51.298;6.430;2023-04-24T00:48:47;8.02;;;5.65;;
35969;SDS011;22448;51.298;6.430;2023-04-24T00:51:14;11.02;;;5.70;;
35969;SDS011;22448;51.298;6.430;2023-04-24T00:53:42;11.40;;;6.35;;
35969;SDS011;22448;51.298;6.430;2023-04-24T00:56:09;14.45;;;7.30;;
35969;SDS011;22448;51.298;6.430;2023-04-24T00:58:36;10.18;;;6.55;;
35969;SDS011;22448;51.298;6.430;2023-04-24T01:01:03;10.82;;;6.88;;
35969;SDS011;22448;51.298;6.430;2023-04-24T01:03:33;12.38;;;6.95;;
35969;SDS011;22448;51.298;6.430;2023-04-24T01:06:03;16.40;;;7.45;;
35969;SDS011;22448;51.298;6.430;2023-04-24T01:08:31;13.68;;;7.82;;
35969;SDS011;22448;51.298;6.430;2023-04-24T01:11:03;18.50;;;8.40;;
35969;SDS011;22448;51.298;6.430;2023-04-24T01:13:31;20.85;;;8.00;;
35969;SDS011;22448;51.298;6.430;2023-04-24T01:15:59;16.63;;;8.25;;
35969;SDS011;22448;51.298;6.430;2023-04-24T01:18:27;18.17;;;8.07;;
35969;SDS011;22448;51.298;6.430;2023-04-24T01:20:56;12.85;;;8.13;;
35969;SDS011;22448;51.298;6.430;2023-04-24T01:23:25;14.95;;;7.88;;
35969;SDS011;22448;51.298;6.430;2023-04-24T01:25:53;11.40;;;7.05;;
35969;SDS011;22448;51.298;6.430;2023-04-24T01:28:20;11.07;;;7.53;;
35969;SDS011;22448;51.298;6.430;2023-04-24T01:30:47;11.60;;;7.47;;
35969;SDS011;22448;51.298;6.430;2023-04-24T01:33:15;12.43;;;8.23;;
35969;SDS011;22448;51.298;6.430;2023-04-24T01:35:42;15.02;;;8.10;;
35969;SDS011;22448;51.298;6.430;2023-04-24T01:38:10;10.77;;;7.78;;
35969;SDS011;22448;51.298;6.430;2023-04-24T01:40:37;15.88;;;8.45;;
35969;SDS011;22448;51.298;6.430;2023-04-24T01:43:04;16.75;;;9.70;;
35969;SDS011;22448;51.298;6.430;2023-04-24T01:45:32;15.70;;;8.95;;
35969;SDS011;22448;51.298;6.430;2023-04-24T01:47:59;16.85;;;9.20;;
35969;SDS011;22448;51.298;6.430;2023-04-24T01:50:27;20.05;;;9.85;;
35969;SDS011;22448;51.298;6.430;2023-04-24T01:52:54;19.65;;;10.48;;
35969;SDS011;22448;51.298;6.430;2023-04-24T01:55:21;18.77;;;11.50;;
35969;SDS011;22448;51.298;6.430;2023-04-24T01:57:48;14.45;;;10.18;;
35969;SDS011;22448;51.298;6.430;2023-04-24T02:00:16;19.48;;;11.90;;
35969;SDS011;22448;51.298;6.430;2023-04-24T02:02:44;24.35;;;11.95;;
35969;SDS011;22448;51.298;6.430;2023-04-24T02:05:14;22.92;;;12.48;;
35969;SDS011;22448;51.298;6.430;2023-04-24T02:07:41;21.05;;;13.30;;
35969;SDS011;22448;51.298;6.430;2023-04-24T02:10:08;20.02;;;12.63;;
35969;SDS011;22448;51.298;6.430;2023-04-24T02:12:41;28.50;;;13.98;;
35969;SDS011;22448;51.298;6.430;2023-04-24T02:15:08;24.65;;;13.85;;
35969;SDS011;22448;51.298;6.430;2023-04-24T02:17:36;32.63;;;15.30;;
35969;SDS011;22448;51.298;6.430;2023-04-24T02:20:04;25.90;;;13.18;;
35969;SDS011;22448;51.298;6.430;2023-04-24T02:22:32;35.40;;;14.73;;
35969;SDS011;22448;51.298;6.430;2023-04-24T02:25:00;29.23;;;15.18;;
35969;SDS011;22448;51.298;6.430;2023-04-24T02:27:28;30.60;;;16.05;;
35969;SDS011;22448;51.298;6.430;2023-04-24T02:29:55;28.60;;;17.20;;
35969;SDS011;22448;51.298;6.430;2023-04-24T02:32:23;29.00;;;16.23;;
35969;SDS011;22448;51.298;6.430;2023-04-24T02:34:50;32.13;;;16.42;;
35969;SDS011;22448;51.298;6.430;2023-04-24T02:37:17;31.63;;;17.35;;
35969;SDS011;22448;51.298;6.430;2023-04-24T02:39:44;27.67;;;16.48;;
35969;SDS011;22448;51.298;6.430;2023-04-24T02:42:12;33.00;;;16.92;;
35969;SDS011;22448;51.298;6.430;2023-04-24T02:44:38;37.88;;;17.40;;
35969;SDS011;22448;51.298;6.430;2023-04-24T02:47:06;33.72;;;17.17;;
35969;SDS011;22448;51.298;6.430;2023-04-24T02:49:33;25.90;;;16.27;;
35969;SDS011;22448;51.298;6.430;2023-04-24T02:52:00;35.65;;;18.55;;
35969;SDS011;22448;51.298;6.430;2023-04-24T02:54:27;29.65;;;16.63;;
35969;SDS011;22448;51.298;6.430;2023-04-24T02:56:54;35.47;;;17.67;;
35969;SDS011;22448;51.298;6.430;2023-04-24T02:59:23;36.20;;;18.13;;
35969;SDS011;22448;51.298;6.430;2023-04-24T03:01:50;33.78;;;18.02;;
35969;SDS011;22448;51.298;6.430;2023-04-24T03:04:17;27.02;;;17.52;;
35969;SDS011;22448;51.298;6.430;2023-04-24T03:06:47;34.47;;;17.60;;
35969;SDS011;22448;51.298;6.430;2023-04-24T03:09:14;32.67;;;17.33;;
35969;SDS011;22448;51.298;6.430;2023-04-24T03:11:41;34.50;;;17.83;;
35969;SDS011;22448;51.298;6.430;2023-04-24T03:14:08;30.15;;;16.88;;
35969;SDS011;22448;51.298;6.430;2023-04-24T03:16:36;33.85;;;17.73;;
35969;SDS011;22448;51.298;6.430;2023-04-24T03:19:05;32.85;;;18.10;;
35969;SDS011;22448;51.298;6.430;2023-04-24T03:21:38;26.30;;;16.95;;
35969;SDS011;22448;51.298;6.430;2023-04-24T03:24:07;30.80;;;16.17;;
35969;SDS011;22448;51.298;6.430;2023-04-24T03:26:36;31.42;;;16.08;;
35969;SDS011;22448;51.298;6.430;2023-04-24T03:29:16;31.85;;;17.20;;
35969;SDS011;22448;51.298;6.430;2023-04-24T03:31:43;30.80;;;17.40;;
35969;SDS011;22448;51.298;6.430;2023-04-24T03:34:11;38.88;;;15.88;;
35969;SDS011;22448;51.298;6.430;2023-04-24T03:36:38;29.77;;;16.80;;
35969;SDS011;22448;51.298;6.430;2023-04-24T03:39:06;29.45;;;15.77;;
35969;SDS011;22448;51.298;6.430;2023-04-24T03:41:36;35.17;;;15.85;;
35969;SDS011;22448;51.298;6.430;2023-04-24T03:44:09;24.10;;;15.85;;
35969;SDS011;22448;51.298;6.430;2023-04-24T03:46:36;27.45;;;15.60;;
35969;SDS011;22448;51.298;6.430;2023-04-24T03:49:03;31.05;;;15.63;;
35969;SDS011;22448;51.298;6.430;2023-04-24T03:51:34;30.20;;;16.20;;
35969;SDS011;22448;51.298;6.430;2023-04-24T03:54:10;29.13;;;15.52;;
35969;SDS011;22448;51.298;6.430;2023-04-24T03:56:38;32.67;;;15.65;;
35969;SDS011;22448;51.298;6.430;2023-04-24T03:59:06;25.20;;;15.00;;
35969;SDS011;22448;51.298;6.430;2023-04-24T04:01:34;26.08;;;14.73;;
35969;SDS011;22448;51.298;6.430;2023-04-24T04:04:13;24.52;;;14.52;;
35969;SDS011;22448;51.298;6.430;2023-04-24T04:06:41;24.13;;;14.73;;
35969;SDS011;22448;51.298;6.430;2023-04-24T04:09:11;24.25;;;14.50;;
35969;SDS011;22448;51.298;6.430;2023-04-24T04:11:37;23.02;;;13.85;;
35969;SDS011;22448;51.298;6.430;2023-04-24T04:14:04;29.73;;;14.65;;
35969;SDS011;22448;51.298;6.430;2023-04-24T04:16:34;28.05;;;14.65;;
35969;SDS011;22448;51.298;6.430;2023-04-24T04:19:04;26.02;;;13.75;;
35969;SDS011;22448;51.298;6.430;2023-04-24T04:21:32;25.33;;;13.95;;
35969;SDS011;22448;51.298;6.430;2023-04-24T04:24:11;24.55;;;13.18;;
35969;SDS011;22448;51.298;6.430;2023-04-24T04:26:43;23.65;;;13.00;;
35969;SDS011;22448;51.298;6.430;2023-04-24T04:29:22;26.45;;;13.98;;
35969;SDS011;22448;51.298;6.430;2023-04-24T04:31:50;19.83;;;13.00;;
35969;SDS011;22448;51.298;6.430;2023-04-24T04:34:20;28.10;;;13.25;;
35969;SDS011;22448;51.298;6.430;2023-04-24T04:36:46;24.90;;;14.88;;
35969;SDS011;22448;51.298;6.430;2023-04-24T04:39:30;23.02;;;13.00;;
35969;SDS011;22448;51.298;6.430;2023-04-24T04:42:04;21.08;;;13.25;;
35969;SDS011;22448;51.298;6.430;2023-04-24T04:44:37;22.25;;;12.15;;
35969;SDS011;22448;51.298;6.430;2023-04-24T04:47:05;26.33;;;12.63;;
35969;SDS011;22448;51.298;6.430;2023-04-24T04:49:35;17.73;;;12.48;;
35969;SDS011;22448;51.298;6.430;2023-04-24T04:52:04;22.33;;;13.60;;
35969;SDS011;22448;51.298;6.430;2023-04-24T04:54:31;21.50;;;13.50;;
35969;SDS011;22448;51.298;6.430;2023-04-24T04:56:58;19.25;;;12.65;;
35969;SDS011;22448;51.298;6.430;2023-04-24T04:59:30;25.30;;;13.60;;
35969;SDS011;22448;51.298;6.430;2023-04-24T05:04:30;22.60;;;14.48;;
35969;SDS011;22448;51.298;6.430;2023-04-24T05:06:58;22.13;;;15.18;;
35969;SDS011;22448;51.298;6.430;2023-04-24T05:09:27;23.88;;;15.52;;
35969;SDS011;22448;51.298;6.430;2023-04-24T05:14:32;19.05;;;14.13;;
35969;SDS011;22448;51.298;6.430;2023-04-24T05:16:59;21.65;;;14.63;;
35969;SDS011;22448;51.298;6.430;2023-04-24T05:19:29;25.50;;;14.63;;
35969;SDS011;22448;51.298;6.430;2023-04-24T05:21:56;23.05;;;13.77;;
35969;SDS011;22448;51.298;6.430;2023-04-24T05:24:23;22.83;;;13.45;;
35969;SDS011;22448;51.298;6.430;2023-04-24T05:27:08;23.73;;;13.75;;
35969;SDS011;22448;51.298;6.430;2023-04-24T05:29:39;21.02;;;13.80;;
35969;SDS011;22448;51.298;6.430;2023-04-24T05:32:08;20.92;;;14.13;;
35969;SDS011;22448;51.298;6.430;2023-04-24T05:34:34;22.40;;;15.00;;
35969;SDS011;22448;51.298;6.430;2023-04-24T05:37:02;19.70;;;13.93;;
35969;SDS011;22448;51.298;6.430;2023-04-24T05:39:29;26.17;;;15.18;;
35969;SDS011;22448;51.298;6.430;2023-04-24T05:41:58;22.10;;;15.13;;
35969;SDS011;22448;51.298;6.430;2023-04-24T05:44:25;24.23;;;15.02;;
35969;SDS011;22448;51.298;6.430;2023-04-24T05:46:52;26.35;;;15.40;;
35969;SDS011;22448;51.298;6.430;2023-04-24T05:49:21;17.73;;;13.45;;
35969;SDS011;22448;51.298;6.430;2023-04-24T05:51:49;23.15;;;14.95;;
35969;SDS011;22448;51.298;6.430;2023-04-24T05:54:16;22.92;;;15.05;;
35969;SDS011;22448;51.298;6.430;2023-04-24T05:56:43;23.67;;;14.23;;
35969;SDS011;22448;51.298;6.430;2023-04-24T05:59:14;20.95;;;13.73;;
35969;SDS011;22448;51.298;6.430;2023-04-24T06:01:41;17.85;;;12.00;;
35969;SDS011;22448;51.298;6.430;2023-04-24T06:04:13;20.52;;;13.68;;
35969;SDS011;22448;51.298;6.430;2023-04-24T06:06:41;22.75;;;13.40;;
35969;SDS011;22448;51.298;6.430;2023-04-24T06:09:09;21.65;;;13.52;;
35969;SDS011;22448;51.298;6.430;2023-04-24T06:11:36;19.45;;;13.18;;
35969;SDS011;22448;51.298;6.430;2023-04-24T06:14:03;20.92;;;12.70;;
35969;SDS011;22448;51.298;6.430;2023-04-24T06:19:10;18.02;;;12.48;;
35969;SDS011;22448;51.298;6.430;2023-04-24T06:21:37;19.77;;;12.18;;
35969;SDS011;22448;51.298;6.430;2023-04-24T06:24:04;19.38;;;12.23;;
35969;SDS011;22448;51.298;6.430;2023-04-24T06:26:31;19.90;;;12.07;;
35969;SDS011;22448;51.298;6.430;2023-04-24T06:28:59;19.55;;;11.88;;
35969;SDS011;22448;51.298;6.430;2023-04-24T06:31:26;16.45;;;11.48;;
35969;SDS011;22448;51.298;6.430;2023-04-24T06:33:53;14.20;;;10.60;;
35969;SDS011;22448;51.298;6.430;2023-04-24T06:36:20;15.68;;;10.25;;
35969;SDS011;22448;51.298;6.430;2023-04-24T06:38:47;16.23;;;9.07;;
35969;SDS011;22448;51.298;6.430;2023-04-24T06:41:14;11.45;;;8.25;;
35969;SDS011;22448;51.298;6.430;2023-04-24T06:43:41;10.10;;;7.80;;
35969;SDS011;22448;51.298;6.430;2023-04-24T06:46:08;9.23;;;6.65;;
35969;SDS011;22448;51.298;6.430;2023-04-24T06:48:36;8.88;;;6.10;;
35969;SDS011;22448;51.298;6.430;2023-04-24T06:51:03;7.72;;;5.45;;
35969;SDS011;22448;51.298;6.430;2023-04-24T06:53:29;7.68;;;4.63;;
35969;SDS011;22448;51.298;6.430;2023-04-24T06:55:56;7.20;;;4.63;;
35969;SDS011;22448;51.298;6.430;2023-04-24T06:58:24;8.32;;;4.20;;
35969;SDS011;22448;51.298;6.430;2023-04-24T07:00:51;4.97;;;4.10;;
35969;SDS011;22448;51.298;6.430;2023-04-24T07:03:19;6.30;;;3.10;;
35969;SDS011;22448;51.298;6.430;2023-04-24T07:05:46;3.75;;;2.70;;
35969;SDS011;22448;51.298;6.430;2023-04-24T07:08:14;3.97;;;2.30;;
35969;SDS011;22448;51.298;6.430;2023-04-24T07:10:44;6.63;;;1.65;;
35969;SDS011;22448;51.298;6.430;2023-04-24T07:13:11;2.38;;;1.52;;
35969;SDS011;22448;51.298;6.430;2023-04-24T07:15:38;4.20;;;1.42;;
35969;SDS011;22448;51.298;6.430;2023-04-24T07:18:06;2.25;;;1.48;;
35969;SDS011;22448;51.298;6.430;2023-04-24T07:20:33;2.80;;;1.08;;
35969;SDS011;22448;51.298;6.430;2023-04-24T07:23:00;2.40;;;1.38;;
35969;SDS011;22448;51.298;6.430;2023-04-24T07:25:28;1.52;;;0.98;;
35969;SDS011;22448;51.298;6.430;2023-04-24T07:27:55;2.88;;;1.38;;
35969;SDS011;22448;51.298;6.430;2023-04-24T07:30:22;2.80;;;1.20;;
35969;SDS011;22448;51.298;6.430;2023-04-24T07:32:49;6.43;;;1.70;;
35969;SDS011;22448;51.298;6.430;2023-04-24T07:35:16;2.25;;;1.60;;
35969;SDS011;22448;51.298;6.430;2023-04-24T07:37:43;5.10;;;1.58;;
35969;SDS011;22448;51.298;6.430;2023-04-24T07:40:12;5.10;;;1.90;;
35969;SDS011;22448;51.298;6.430;2023-04-24T07:42:40;3.03;;;1.88;;
35969;SDS011;22448;51.298;6.430;2023-04-24T07:45:07;3.72;;;2.10;;
35969;SDS011;22448;51.298;6.430;2023-04-24T07:47:34;4.78;;;2.35;;
35969;SDS011;22448;51.298;6.430;2023-04-24T07:50:01;4.57;;;2.80;;
35969;SDS011;22448;51.298;6.430;2023-04-24T07:52:28;4.22;;;2.83;;
35969;SDS011;22448;51.298;6.430;2023-04-24T07:54:55;4.70;;;2.50;;
35969;SDS011;22448;51.298;6.430;2023-04-24T07:57:25;5.65;;;2.40;;
35969;SDS011;22448;51.298;6.430;2023-04-24T07:59:52;6.93;;;2.08;;
35969;SDS011;22448;51.298;6.430;2023-04-24T08:02:19;7.55;;;1.60;;
35969;SDS011;22448;51.298;6.430;2023-04-24T08:04:46;2.10;;;1.30;;
35969;SDS011;22448;51.298;6.430;2023-04-24T08:07:13;2.75;;;1.50;;
35969;SDS011;22448;51.298;6.430;2023-04-24T08:09:40;9.20;;;1.75;;
35969;SDS011;22448;51.298;6.430;2023-04-24T08:12:07;4.25;;;2.10;;
35969;SDS011;22448;51.298;6.430;2023-04-24T08:14:34;3.38;;;2.05;;
35969;SDS011;22448;51.298;6.430;2023-04-24T08:17:01;2.95;;;2.22;;
35969;SDS011;22448;51.298;6.430;2023-04-24T08:19:29;3.85;;;1.50;;
35969;SDS011;22448;51.298;6.430;2023-04-24T08:21:56;2.08;;;1.73;;
35969;SDS011;22448;51.298;6.430;2023-04-24T08:24:23;3.42;;;2.10;;
35969;SDS011;22448;51.298;6.430;2023-04-24T08:26:50;6.28;;;2.85;;
35969;SDS011;22448;51.298;6.430;2023-04-24T08:29:18;10.50;;;6.88;;
35969;SDS011;22448;51.298;6.430;2023-04-24T08:31:46;21.05;;;11.13;;
35969;SDS011;22448;51.298;6.430;2023-04-24T08:34:13;18.00;;;12.73;;
35969;SDS011;22448;51.298;6.430;2023-04-24T08:36:42;21.98;;;12.82;;
35969;SDS011;22448;51.298;6.430;2023-04-24T08:39:13;18.83;;;11.95;;
35969;SDS011;22448;51.298;6.430;2023-04-24T08:41:41;12.65;;;7.60;;
35969;SDS011;22448;51.298;6.430;2023-04-24T08:44:12;10.45;;;6.03;;
35969;SDS011;22448;51.298;6.430;2023-04-24T08:46:42;11.15;;;5.80;;
35969;SDS011;22448;51.298;6.430;2023-04-24T08:49:13;10.02;;;6.38;;
35969;SDS011;22448;51.298;6.430;2023-04-24T08:51:42;10.57;;;8.18;;
35969;SDS011;22448;51.298;6.430;2023-04-24T08:54:11;13.63;;;9.02;;
35969;SDS011;22448;51.298;6.430;2023-04-24T08:56:38;18.45;;;9.57;;
35969;SDS011;22448;51.298;6.430;2023-04-24T08:59:08;14.80;;;10.55;;
35969;SDS011;22448;51.298;6.430;2023-04-24T09:01:36;21.95;;;10.77;;
35969;SDS011;22448;51.298;6.430;2023-04-24T09:04:06;24.73;;;11.50;;
35969;SDS011;22448;51.298;6.430;2023-04-24T09:06:36;17.80;;;10.73;;
35969;SDS011;22448;51.298;6.430;2023-04-24T09:09:03;16.08;;;9.40;;
35969;SDS011;22448;51.298;6.430;2023-04-24T09:11:31;19.45;;;10.32;;
35969;SDS011;22448;51.298;6.430;2023-04-24T09:13:59;24.65;;;10.32;;
35969;SDS011;22448;51.298;6.430;2023-04-24T09:16:27;20.48;;;10.15;;
35969;SDS011;22448;51.298;6.430;2023-04-24T09:18:54;19.27;;;10.32;;
35969;SDS011;22448;51.298;6.430;2023-04-24T09:21:22;23.85;;;10.60;;
35969;SDS011;22448;51.298;6.430;2023-04-24T09:24:00;20.20;;;10.38;;
35969;SDS011;22448;51.298;6.430;2023-04-24T09:26:30;26.38;;;11.00;;
35969;SDS011;22448;51.298;6.430;2023-04-24T09:28:59;25.60;;;12.05;;
35969;SDS011;22448;51.298;6.430;2023-04-24T09:31:29;25.67;;;11.52;;
35969;SDS011;22448;51.298;6.430;2023-04-24T09:34:03;24.20;;;12.32;;
35969;SDS011;22448;51.298;6.430;2023-04-24T09:36:41;26.80;;;12.18;;
35969;SDS011;22448;51.298;6.430;2023-04-24T09:39:13;27.65;;;12.77;;
35969;SDS011;22448;51.298;6.430;2023-04-24T09:44:17;29.33;;;12.25;;
35969;SDS011;22448;51.298;6.430;2023-04-24T09:46:51;25.60;;;12.15;;
35969;SDS011;22448;51.298;6.430;2023-04-24T09:49:23;27.25;;;12.88;;
35969;SDS011;22448;51.298;6.430;2023-04-24T09:51:52;30.45;;;12.95;;
35969;SDS011;22448;51.298;6.430;2023-04-24T09:54:29;30.48;;;12.88;;
35969;SDS011;22448;51.298;6.430;2023-04-24T09:56:56;26.73;;;12.93;;
35969;SDS011;22448;51.298;6.430;2023-04-24T09:59:23;28.33;;;13.27;;
35969;SDS011;22448;51.298;6.430;2023-04-24T10:01:50;34.90;;;13.90;;
35969;SDS011;22448;51.298;6.430;2023-04-24T10:04:19;29.98;;;13.15;;
35969;SDS011;22448;51.298;6.430;2023-04-24T10:06:47;29.23;;;12.82;;
35969;SDS011;22448;51.298;6.430;2023-04-24T10:09:16;29.17;;;13.02;;
35969;SDS011;22448;51.298;6.430;2023-04-24T10:11:46;32.20;;;13.23;;
35969;SDS011;22448;51.298;6.430;2023-04-24T10:14:18;27.73;;;11.80;;
35969;SDS011;22448;51.298;6.430;2023-04-24T10:16:47;28.05;;;12.43;;
35969;SDS011;22448;51.298;6.430;2023-04-24T10:19:15;33.85;;;13.50;;
35969;SDS011;22448;51.298;6.430;2023-04-24T10:21:45;33.38;;;13.00;;
35969;SDS011;22448;51.298;6.430;2023-04-24T10:24:16;36.58;;;11.95;;
35969;SDS011;22448;51.298;6.430;2023-04-24T10:26:44;29.85;;;11.25;;
35969;SDS011;22448;51.298;6.430;2023-04-24T10:29:13;28.83;;;11.00;;
35969;SDS011;22448;51.298;6.430;2023-04-24T10:31:42;30.65;;;11.13;;
35969;SDS011;22448;51.298;6.430;2023-04-24T10:34:12;32.33;;;11.77;;
35969;SDS011;22448;51.298;6.430;2023-04-24T10:36:43;29.67;;;10.45;;
35969;SDS011;22448;51.298;6.430;2023-04-24T10:39:19;24.35;;;9.98;;
35969;SDS011;22448;51.298;6.430;2023-04-24T10:41:53;23.98;;;10.18;;
35969;SDS011;22448;51.298;6.430;2023-04-24T10:44:24;25.85;;;8.27;;
35969;SDS011;22448;51.298;6.430;2023-04-24T10:46:54;26.13;;;8.30;;
35969;SDS011;22448;51.298;6.430;2023-04-24T10:49:28;22.73;;;6.88;;
35969;SDS011;22448;51.298;6.430;2023-04-24T10:52:00;26.48;;;7.35;;
35969;SDS011;22448;51.298;6.430;2023-04-24T10:59:46;16.42;;;5.53;;
35969;SDS011;22448;51.298;6.430;2023-04-24T11:02:54;21.20;;;5.65;;
35969;SDS011;22448;51.298;6.430;2023-04-24T11:05:21;25.73;;;6.53;;
35969;SDS011;22448;51.298;6.430;2023-04-24T11:13:16;21.00;;;6.32;;
35969;SDS011;22448;51.298;6.430;2023-04-24T11:16:34;24.23;;;6.13;;
35969;SDS011;22448;51.298;6.430;2023-04-24T11:18:42;23.42;;;6.53;;
35969;SDS011;22448;51.298;6.430;2023-04-24T11:21:17;20.00;;;6.80;;
35969;SDS011;22448;51.298;6.430;2023-04-24T11:23:45;30.52;;;6.85;;
35969;SDS011;22448;51.298;6.430;2023-04-24T11:26:12;15.65;;;5.60;;
35969;SDS011;22448;51.298;6.430;2023-04-24T11:28:45;15.18;;;5.05;;
35969;SDS011;22448;51.298;6.430;2023-04-24T11:34:09;17.07;;;5.50;;
35969;SDS011;22448;51.298;6.430;2023-04-24T11:36:38;17.70;;;5.25;;
35969;SDS011;22448;51.298;6.430;2023-04-24T11:39:06;17.20;;;4.45;;
35969;SDS011;22448;51.298;6.430;2023-04-24T11:41:33;15.80;;;4.82;;
35969;SDS011;22448;51.298;6.430;2023-04-24T11:44:02;20.85;;;4.60;;
35969;SDS011;22448;51.298;6.430;2023-04-24T11:46:32;22.02;;;4.60;;
35969;SDS011;22448;51.298;6.430;2023-04-24T11:48:59;27.23;;;5.03;;
35969;SDS011;22448;51.298;6.430;2023-04-24T11:51:27;15.88;;;4.10;;
35969;SDS011;22448;51.298;6.430;2023-04-24T11:54:01;15.00;;;4.13;;
35969;SDS011;22448;51.298;6.430;2023-04-24T11:56:34;11.52;;;3.58;;
35969;SDS011;22448;51.298;6.430;2023-04-24T11:59:03;14.82;;;3.95;;
35969;SDS011;22448;51.298;6.430;2023-04-24T12:01:41;13.60;;;3.50;;
35969;SDS011;22448;51.298;6.430;2023-04-24T12:04:12;13.27;;;3.30;;
35969;SDS011;22448;51.298;6.430;2023-04-24T12:09:43;14.02;;;3.42;;
35969;SDS011;22448;51.298;6.430;2023-04-24T12:12:13;13.63;;;2.83;;
35969;SDS011;22448;51.298;6.430;2023-04-24T12:14:48;11.40;;;3.35;;
35969;SDS011;22448;51.298;6.430;2023-04-24T12:17:16;9.00;;;2.72;;
35969;SDS011;22448;51.298;6.430;2023-04-24T12:19:47;6.28;;;2.33;;
35969;SDS011;22448;51.298;6.430;2023-04-24T12:22:14;6.68;;;2.15;;
35969;SDS011;22448;51.298;6.430;2023-04-24T12:27:24;6.20;;;1.63;;
35969;SDS011;22448;51.298;6.430;2023-04-24T12:29:58;12.13;;;2.03;;
35969;SDS011;22448;51.298;6.430;2023-04-24T12:32:26;8.02;;;2.60;;
35969;SDS011;22448;51.298;6.430;2023-04-24T12:34:54;9.70;;;2.00;;
35969;SDS011;22448;51.298;6.430;2023-04-24T12:37:25;6.78;;;2.20;;
35969;SDS011;22448;51.298;6.430;2023-04-24T12:42:34;7.55;;;2.38;;
35969;SDS011;22448;51.298;6.430;2023-04-24T12:45:03;6.75;;;1.48;;
35969;SDS011;22448;51.298;6.430;2023-04-24T12:47:32;12.45;;;2.10;;
35969;SDS011;22448;51.298;6.430;2023-04-24T12:50:00;15.05;;;1.83;;
35969;SDS011;22448;51.298;6.430;2023-04-24T12:52:28;6.68;;;1.92;;
35969;SDS011;22448;51.298;6.430;2023-04-24T12:54:57;6.18;;;1.50;;
35969;SDS011;22448;51.298;6.430;2023-04-24T12:57:26;6.68;;;1.70;;
35969;SDS011;22448;51.298;6.430;2023-04-24T12:59:55;8.13;;;1.75;;
35969;SDS011;22448;51.298;6.430;2023-04-24T13:02:27;3.55;;;1.08;;
35969;SDS011;22448;51.298;6.430;2023-04-24T13:04:57;5.07;;;1.40;;
35969;SDS011;22448;51.298;6.430;2023-04-24T13:07:24;5.68;;;1.50;;
35969;SDS011;22448;51.298;6.430;2023-04-24T13:09:52;8.85;;;1.50;;
35969;SDS011;22448;51.298;6.430;2023-04-24T13:12:20;4.88;;;1.50;;
35969;SDS011;22448;51.298;6.430;2023-04-24T13:14:47;5.15;;;1.15;;
35969;SDS011;22448;51.298;6.430;2023-04-24T13:17:15;11.57;;;1.58;;
35969;SDS011;22448;51.298;6.430;2023-04-24T13:19:42;7.57;;;1.77;;
35969;SDS011;22448;51.298;6.430;2023-04-24T13:22:10;7.45;;;1.63;;
35969;SDS011;22448;51.298;6.430;2023-04-24T13:24:38;5.85;;;1.67;;
35969;SDS011;22448;51.298;6.430;2023-04-24T13:27:08;13.65;;;2.22;;
35969;SDS011;22448;51.298;6.430;2023-04-24T13:29:36;5.20;;;1.70;;
35969;SDS011;22448;51.298;6.430;2023-04-24T13:32:03;5.75;;;1.80;;
35969;SDS011;22448;51.298;6.430;2023-04-24T13:34:31;7.75;;;2.08;;
35969;SDS011;22448;51.298;6.430;2023-04-24T13:36:58;7.38;;;1.70;;
35969;SDS011;22448;51.298;6.430;2023-04-24T13:39:25;7.72;;;1.55;;
35969;SDS011;22448;51.298;6.430;2023-04-24T13:41:53;6.18;;;1.90;;
35969;SDS011;22448;51.298;6.430;2023-04-24T13:44:20;4.68;;;1.50;;
35969;SDS011;22448;51.298;6.430;2023-04-24T13:46:50;7.50;;;1.73;;
35969;SDS011;22448;51.298;6.430;2023-04-24T13:49:20;8.68;;;1.83;;
35969;SDS011;22448;51.298;6.430;2023-04-24T13:51:47;9.95;;;1.50;;
35969;SDS011;22448;51.298;6.430;2023-04-24T13:54:14;10.50;;;1.80;;
35969;SDS011;22448;51.298;6.430;2023-04-24T13:56:41;9.13;;;2.10;;
35969;SDS011;22448;51.298;6.430;2023-04-24T13:59:08;36.17;;;15.15;;
35969;SDS011;22448;51.298;6.430;2023-04-24T14:01:35;8.30;;;3.83;;
35969;SDS011;22448;51.298;6.430;2023-04-24T14:04:03;13.38;;;5.03;;
35969;SDS011;22448;51.298;6.430;2023-04-24T14:06:30;8.85;;;2.80;;
35969;SDS011;22448;51.298;6.430;2023-04-24T14:08:57;4.75;;;1.30;;
35969;SDS011;22448;51.298;6.430;2023-04-24T14:11:24;5.40;;;3.78;;
35969;SDS011;22448;51.298;6.430;2023-04-24T14:13:53;11.73;;;5.82;;
35969;SDS011;22448;51.298;6.430;2023-04-24T14:16:22;3.78;;;1.55;;
35969;SDS011;22448;51.298;6.430;2023-04-24T14:18:49;5.30;;;2.58;;
35969;SDS011;22448;51.298;6.430;2023-04-24T14:21:16;13.68;;;8.07;;
35969;SDS011;22448;51.298;6.430;2023-04-24T14:23:43;9.13;;;2.50;;
35969;SDS011;22448;51.298;6.430;2023-04-24T14:26:11;8.55;;;1.85;;
35969;SDS011;22448;51.298;6.430;2023-04-24T14:28:38;7.95;;;1.88;;
35969;SDS011;22448;51.298;6.430;2023-04-24T14:31:05;7.70;;;1.88;;
35969;SDS011;22448;51.298;6.430;2023-04-24T14:33:32;5.82;;;1.70;;
35969;SDS011;22448;51.298;6.430;2023-04-24T14:35:59;6.95;;;2.13;;
35969;SDS011;22448;51.298;6.430;2023-04-24T14:38:26;11.15;;;2.15;;
35969;SDS011;22448;51.298;6.430;2023-04-24T14:40:53;8.30;;;2.00;;
35969;SDS011;22448;51.298;6.430;2023-04-24T14:43:23;7.95;;;2.30;;
35969;SDS011;22448;51.298;6.430;2023-04-24T14:45:50;6.68;;;2.00;;
35969;SDS011;22448;51.298;6.430;2023-04-24T14:48:17;5.40;;;1.95;;
35969;SDS011;22448;51.298;6.430;2023-04-24T14:50:45;15.52;;;2.33;;
35969;SDS011;22448;51.298;6.430;2023-04-24T14:53:12;10.43;;;1.65;;
35969;SDS011;22448;51.298;6.430;2023-04-24T14:55:39;10.00;;;1.65;;
35969;SDS011;22448;51.298;6.430;2023-04-24T14:58:06;8.20;;;1.95;;
35969;SDS011;22448;51.298;6.430;2023-04-24T15:00:33;9.85;;;1.70;;
35969;SDS011;22448;51.298;6.430;2023-04-24T15:03:00;4.63;;;1.60;;
35969;SDS011;22448;51.298;6.430;2023-04-24T15:05:28;7.20;;;2.13;;
35969;SDS011;22448;51.298;6.430;2023-04-24T15:07:55;5.68;;;2.17;;
35969;SDS011;22448;51.298;6.430;2023-04-24T15:10:22;6.82;;;1.95;;
35969;SDS011;22448;51.298;6.430;2023-04-24T15:12:50;4.97;;;1.85;;
35969;SDS011;22448;51.298;6.430;2023-04-24T15:15:17;6.90;;;2.30;;